Time;durP1;ratioP1;P1;durP2;ratioP2;P2;SDS_P1;SDS_P2;PMS_P1;PMS_P2;Temp;Humidity;BMP_temperature;BMP_pressure;BME280_temperature;BME280_humidity;BME280_pressure;Samples;Min_cycle;Max_cycle;Signal;HPM_P1;HPM_P2
2020/12/09 00:00:04;;;;;;;0.30;0.10;;;0.80;99.90;;;;;;20905722;28;20053;-61
2020/12/09 00:10:06;;;;;;;0.10;0.10;;;0.90;99.90;;;;;;20888949;28;20099;-62
2020/12/09 00:20:08;;;;;;;0.20;0.10;;;0.90;99.90;;;;;;20841769;28;20045;-61
2020/12/09 00:30:10;;;;;;;0.10;0.10;;;0.90;99.90;;;;;;20822935;28;20100;-59
2020/12/09 00:40:12;;;;;;;0.15;0.10;;;0.90;99.90;;;;;;20823246;28;20099;-59
2020/12/09 01:00:25;;;;;;;0.20;0.10;;;0.90;99.90;;;;;;20830240;28;21451;-58
2020/12/09 01:10:37;;;;;;;0.20;0.00;;;0.90;99.90;;;;;;20873319;28;20048;-58
2020/12/09 01:20:39;;;;;;;0.00;0.00;;;0.90;99.90;;;;;;20920185;28;20389;-60
2020/12/09 01:30:40;;;;;;;0.40;0.00;;;1.00;99.90;;;;;;20914570;28;20033;-60
2020/12/09 01:40:42;;;;;;;0.10;0.00;;;1.00;99.90;;;;;;20916056;28;20103;-60
2020/12/09 01:50:44;;;;;;;0.20;0.10;;;1.20;99.90;;;;;;20845853;28;20404;-60
2020/12/09 02:00:46;;;;;;;0.22;0.00;;;1.10;99.90;;;;;;20832127;28;20391;-62
2020/12/09 02:10:58;;;;;;;0.00;0.00;;;1.10;99.90;;;;;;20814555;28;20118;-64
2020/12/09 02:21:00;;;;;;;0.00;0.00;;;1.20;99.90;;;;;;20781062;28;20046;-64
2020/12/09 02:31:02;;;;;;;0.00;0.00;;;1.30;99.90;;;;;;20831656;28;20480;-63
2020/12/09 02:41:04;;;;;;;0.00;0.00;;;1.30;99.90;;;;;;20829697;28;20542;-64
2020/12/09 02:51:06;;;;;;;0.00;0.00;;;1.40;99.90;;;;;;20812523;28;20103;-65
2020/12/09 03:01:07;;;;;;;0.00;0.00;;;1.40;99.90;;;;;;20872098;28;20045;-65
2020/12/09 03:11:09;;;;;;;0.00;0.00;;;1.40;99.90;;;;;;20915042;28;20423;-65
2020/12/09 03:21:11;;;;;;;0.22;0.00;;;1.30;99.90;;;;;;20899406;28;20470;-65
2020/12/09 03:31:13;;;;;;;0.10;0.05;;;1.30;99.90;;;;;;20900647;28;20298;-64
2020/12/09 03:41:15;;;;;;;0.30;0.10;;;1.20;99.90;;;;;;20913556;28;20380;-65
2020/12/09 03:51:16;;;;;;;0.17;0.10;;;1.20;99.90;;;;;;20913689;28;20403;-65
2020/12/09 04:01:19;;;;;;;0.28;0.20;;;1.10;99.90;;;;;;20897249;28;20388;-65
2020/12/09 04:11:21;;;;;;;0.20;0.20;;;1.10;99.90;;;;;;20889200;28;20059;-64
2020/12/09 04:21:23;;;;;;;1.27;0.10;;;1.00;99.90;;;;;;20914462;28;20052;-64
2020/12/09 04:31:25;;;;;;;2.45;0.10;;;1.10;99.90;;;;;;20871936;28;20087;-65
2020/12/09 04:41:27;;;;;;;0.00;0.00;;;1.20;99.90;;;;;;20869675;28;20041;-66
2020/12/09 04:52:04;;;;;;;0.08;0.00;;;1.30;99.90;;;;;;20921102;28;20041;-65
2020/12/09 05:02:11;;;;;;;0.10;0.05;;;1.30;99.90;;;;;;20920281;28;20114;-63
2020/12/09 05:12:17;;;;;;;1.05;0.10;;;1.40;99.90;;;;;;20919536;28;20445;-63
2020/12/09 05:22:21;;;;;;;0.08;0.00;;;1.40;99.90;;;;;;20899792;28;20048;-64
2020/12/09 05:32:23;;;;;;;0.00;0.00;;;1.40;99.90;;;;;;20918065;28;20057;-63
2020/12/09 05:42:26;;;;;;;0.17;0.10;;;1.40;99.90;;;;;;20918791;28;20441;-63
2020/12/09 05:52:28;;;;;;;0.10;0.10;;;1.40;99.90;;;;;;20900560;28;20041;-63
2020/12/09 06:02:30;;;;;;;0.28;0.08;;;1.40;99.90;;;;;;20844087;28;20041;-64
2020/12/09 06:12:54;;;;;;;0.85;0.15;;;1.40;99.90;;;;;;20832752;28;20045;-64
2020/12/09 06:22:57;;;;;;;0.45;0.10;;;1.60;99.90;;;;;;20815348;28;20083;-63
2020/12/09 06:32:59;;;;;;;0.57;0.10;;;1.40;99.90;;;;;;20829149;28;20045;-64
2020/12/09 06:43:11;;;;;;;0.47;0.30;;;1.50;99.90;;;;;;20812653;28;20092;-63
2020/12/09 06:53:21;;;;;;;0.40;0.30;;;1.40;99.90;;;;;;20830593;28;20033;-63
2020/12/09 07:03:27;;;;;;;0.80;0.50;;;1.30;99.90;;;;;;20873140;28;20569;-63
2020/12/09 07:13:29;;;;;;;1.10;0.73;;;1.10;99.90;;;;;;20911958;28;20036;-63
2020/12/09 07:23:32;;;;;;;0.73;0.60;;;0.90;99.90;;;;;;20910243;28;20095;-63
2020/12/09 07:33:35;;;;;;;0.95;0.60;;;0.80;99.90;;;;;;20909341;28;20032;-63
2020/12/09 07:43:37;;;;;;;0.45;0.20;;;0.80;99.90;;;;;;20906977;28;20052;-62
2020/12/09 07:53:39;;;;;;;0.00;0.00;;;0.90;99.90;;;;;;20889905;28;20098;-62
2020/12/09 08:03:41;;;;;;;0.00;0.00;;;0.80;99.90;;;;;;20826499;28;20068;-62
2020/12/09 08:13:44;;;;;;;0.00;0.00;;;0.90;99.90;;;;;;20825143;28;20037;-62
2020/12/09 08:23:49;;;;;;;0.25;0.10;;;1.00;99.90;;;;;;20807588;28;20503;-62
2020/12/09 08:33:51;;;;;;;0.95;0.30;;;1.10;99.90;;;;;;20825310;28;20045;-61
2020/12/09 08:43:57;;;;;;;0.10;0.10;;;1.10;99.90;;;;;;20806500;28;20061;-61
2020/12/09 08:54:01;;;;;;;0.00;0.00;;;1.20;99.90;;;;;;20823972;28;20041;-61
2020/12/09 09:04:06;;;;;;;0.10;0.00;;;1.20;99.90;;;;;;20894041;28;20110;-61
2020/12/09 09:14:08;;;;;;;0.00;0.00;;;1.20;99.90;;;;;;20920434;28;20079;-61
2020/12/09 09:24:11;;;;;;;0.00;0.00;;;1.20;99.90;;;;;;20918992;28;20045;-60
2020/12/09 09:34:13;;;;;;;0.15;0.00;;;1.10;99.90;;;;;;20918975;28;20091;-61
2020/12/09 09:44:15;;;;;;;0.00;0.00;;;1.10;99.90;;;;;;20876670;28;20104;-61
2020/12/09 09:54:17;;;;;;;0.00;0.00;;;1.10;99.90;;;;;;20835482;28;20087;-61
2020/12/09 10:04:20;;;;;;;0.08;0.00;;;1.00;99.90;;;;;;20834201;28;20065;-60
2020/12/09 10:14:22;;;;;;;0.00;0.00;;;1.00;99.90;;;;;;20868535;28;20033;-60
2020/12/09 10:24:24;;;;;;;0.00;0.00;;;1.20;99.90;;;;;;20913865;28;20084;-60
2020/12/09 10:34:27;;;;;;;0.00;0.00;;;1.20;99.90;;;;;;20831747;28;20446;-59
2020/12/09 10:44:29;;;;;;;0.85;0.00;;;1.00;99.90;;;;;;20814025;28;20115;-59
2020/12/09 10:54:31;;;;;;;0.00;0.00;;;1.10;99.90;;;;;;20831107;28;20178;-60
2020/12/09 11:04:33;;;;;;;0.00;0.00;;;1.20;99.90;;;;;;20882366;28;20056;-61
2020/12/09 11:14:37;;;;;;;0.00;0.00;;;1.10;99.90;;;;;;20878173;28;20032;-60
2020/12/09 11:24:39;;;;;;;0.00;0.00;;;1.20;99.90;;;;;;20910672;28;20102;-60
2020/12/09 11:34:41;;;;;;;0.00;0.00;;;1.00;99.90;;;;;;20909647;28;20479;-61
2020/12/09 11:44:43;;;;;;;0.00;0.00;;;0.80;99.90;;;;;;20873753;28;20499;-62
2020/12/09 11:54:45;;;;;;;0.00;0.00;;;1.00;99.90;;;;;;20909051;28;20099;-60
2020/12/09 12:04:49;;;;;;;0.00;0.00;;;1.00;99.90;;;;;;20938670;23;20411;-61
2020/12/09 12:14:51;;;;;;;0.00;0.00;;;1.00;99.90;;;;;;20805964;28;20552;-60
2020/12/09 12:24:54;;;;;;;0.00;0.00;;;1.20;99.90;;;;;;20825231;28;20391;-59
2020/12/09 12:34:56;;;;;;;0.00;0.00;;;1.20;99.90;;;;;;20807272;28;20042;-59
2020/12/09 12:44:59;;;;;;;0.00;0.00;;;1.20;99.90;;;;;;20836917;28;20091;-59
2020/12/09 12:55:03;;;;;;;0.00;0.00;;;1.20;99.90;;;;;;20840571;28;20394;-60
2020/12/09 13:05:05;;;;;;;0.00;0.00;;;1.20;99.90;;;;;;20831033;28;20399;-62
2020/12/09 13:15:07;;;;;;;0.00;0.00;;;1.40;99.90;;;;;;20838071;28;20057;-61
2020/12/09 13:25:10;;;;;;;0.00;0.00;;;1.30;99.90;;;;;;20819516;28;20037;-61
2020/12/09 13:35:13;;;;;;;0.00;0.00;;;1.20;99.90;;;;;;20836943;28;20447;-60
2020/12/09 13:45:17;;;;;;;0.00;0.00;;;1.20;99.90;;;;;;20786506;28;20096;-60
2020/12/09 13:55:19;;;;;;;0.20;0.00;;;1.00;99.90;;;;;;20752608;28;20038;-60
2020/12/09 14:05:21;;;;;;;0.00;0.00;;;1.00;99.90;;;;;;20752801;28;20104;-60
2020/12/09 14:15:23;;;;;;;0.00;0.00;;;1.00;99.90;;;;;;20750070;28;20057;-61
2020/12/09 14:25:26;;;;;;;0.20;0.00;;;1.20;99.90;;;;;;20732751;28;20050;-60
2020/12/09 14:35:28;;;;;;;0.00;0.00;;;1.10;99.90;;;;;;20701002;28;20053;-60
2020/12/09 14:45:30;;;;;;;0.00;0.00;;;1.00;99.90;;;;;;20749445;28;20404;-60
2020/12/09 14:55:32;;;;;;;0.00;0.00;;;0.90;99.90;;;;;;20714590;28;20042;-60
2020/12/09 15:05:38;;;;;;;0.20;0.00;;;0.90;99.90;;;;;;20826646;28;20050;-58
2020/12/09 15:15:39;;;;;;;0.10;0.00;;;0.90;99.90;;;;;;20794458;28;20054;-60
2020/12/09 15:25:41;;;;;;;0.00;0.00;;;0.90;99.90;;;;;;20793266;28;20085;-60
2020/12/09 15:35:44;;;;;;;0.10;0.00;;;0.90;99.90;;;;;;20828881;28;20434;-60
2020/12/09 15:45:46;;;;;;;0.20;0.10;;;0.80;99.90;;;;;;20792885;28;20041;-60
2020/12/09 15:55:48;;;;;;;0.28;0.00;;;0.90;99.90;;;;;;20732449;28;20034;-59
2020/12/09 16:05:51;;;;;;;0.00;0.00;;;0.80;99.90;;;;;;20743975;28;20112;-60
2020/12/09 16:15:54;;;;;;;0.10;0.10;;;0.80;99.90;;;;;;20742701;28;20089;-60
2020/12/09 16:25:57;;;;;;;0.10;0.10;;;0.80;99.90;;;;;;20724036;28;20385;-60
2020/12/09 16:35:59;;;;;;;0.03;0.03;;;0.80;99.90;;;;;;20685771;28;20050;-60
2020/12/09 16:46:02;;;;;;;0.03;0.00;;;0.90;99.90;;;;;;20644079;28;20473;-60
2020/12/09 16:56:04;;;;;;;0.13;0.10;;;0.80;99.90;;;;;;20694005;28;20050;-60
2020/12/09 17:06:06;;;;;;;0.03;0.00;;;0.80;99.90;;;;;;20661664;28;20112;-60
2020/12/09 17:16:11;;;;;;;0.22;0.00;;;0.80;99.90;;;;;;20707833;28;20030;-60
2020/12/09 17:26:16;;;;;;;0.30;0.10;;;0.80;99.90;;;;;;20727979;28;20053;-61
2020/12/09 17:36:20;;;;;;;0.20;0.10;;;0.80;99.90;;;;;;20780545;28;20049;-60
2020/12/09 17:46:22;;;;;;;0.20;0.10;;;0.90;99.90;;;;;;20836704;28;20372;-60
2020/12/09 17:56:27;;;;;;;0.00;0.00;;;0.90;99.90;;;;;;20817126;28;20535;-60
2020/12/09 18:06:36;;;;;;;0.00;0.00;;;0.90;99.90;;;;;;20834396;28;20103;-60
2020/12/09 18:16:39;;;;;;;0.00;0.00;;;0.80;99.90;;;;;;20800201;28;20042;-60
2020/12/09 18:26:41;;;;;;;0.40;0.20;;;0.80;99.90;;;;;;20815718;28;20037;-60
2020/12/09 18:36:43;;;;;;;0.10;0.10;;;0.80;99.90;;;;;;20814572;28;20076;-60
2020/12/09 18:46:47;;;;;;;0.00;0.00;;;0.80;99.90;;;;;;20813713;28;20091;-60
2020/12/09 18:56:49;;;;;;;0.10;0.10;;;0.80;99.90;;;;;;20795926;28;20037;-60
2020/12/09 19:06:52;;;;;;;0.20;0.10;;;0.80;99.90;;;;;;20795456;28;20450;-60
2020/12/09 19:16:57;;;;;;;0.20;0.10;;;0.70;99.90;;;;;;20795513;28;20099;-60
2020/12/09 19:26:59;;;;;;;0.00;0.00;;;0.80;99.90;;;;;;20814155;28;20563;-60
2020/12/09 19:37:07;;;;;;;0.13;0.10;;;0.80;99.90;;;;;;20726817;28;20084;-60
2020/12/09 19:47:11;;;;;;;0.30;0.20;;;0.90;99.90;;;;;;20787260;28;20069;-60
2020/12/09 19:57:14;;;;;;;0.10;0.10;;;0.90;99.90;;;;;;20808747;28;20129;-61
2020/12/09 20:07:16;;;;;;;0.38;0.17;;;0.90;99.90;;;;;;20809190;28;20092;-60
2020/12/09 20:17:19;;;;;;;0.52;0.20;;;0.90;99.90;;;;;;20825559;28;20046;-60
2020/12/09 20:27:22;;;;;;;0.25;0.20;;;0.90;99.90;;;;;;20806535;28;20041;-60
2020/12/09 20:37:25;;;;;;;0.40;0.30;;;0.90;99.90;;;;;;20825261;28;20163;-60
2020/12/09 20:47:27;;;;;;;0.30;0.20;;;0.90;99.90;;;;;;20822680;28;20041;-60
2020/12/09 20:57:31;;;;;;;0.38;0.28;;;1.00;99.90;;;;;;20806200;28;20049;-61
2020/12/09 21:07:34;;;;;;;0.30;0.30;;;0.90;99.90;;;;;;20837716;28;20033;-61
2020/12/09 21:17:37;;;;;;;0.70;0.30;;;0.90;99.90;;;;;;20820344;28;20072;-60
2020/12/09 21:27:41;;;;;;;0.40;0.30;;;0.90;99.90;;;;;;20804330;28;20034;-61
2020/12/09 21:37:43;;;;;;;0.75;0.30;;;0.90;99.90;;;;;;20802399;28;20049;-61
2020/12/09 21:47:56;;;;;;;0.30;0.20;;;0.80;99.90;;;;;;20817361;28;20083;-62
2020/12/09 21:57:58;;;;;;;0.40;0.20;;;0.90;99.90;;;;;;20801271;28;20091;-61
2020/12/09 22:08:00;;;;;;;0.30;0.30;;;0.90;99.90;;;;;;20784337;28;20042;-61
2020/12/09 22:18:02;;;;;;;0.57;0.32;;;0.90;99.90;;;;;;20752870;28;20034;-61
2020/12/09 22:28:04;;;;;;;0.50;0.30;;;0.90;99.90;;;;;;20751735;28;20050;-61
2020/12/09 22:38:06;;;;;;;0.70;0.40;;;0.80;99.90;;;;;;20733212;28;20038;-61
2020/12/09 22:48:08;;;;;;;2.33;0.57;;;0.80;99.90;;;;;;20748419;28;20054;-61
2020/12/09 22:58:10;;;;;;;0.45;0.30;;;0.80;99.90;;;;;;20709623;28;20105;-61
2020/12/09 23:08:12;;;;;;;0.30;0.22;;;0.80;99.90;;;;;;20666821;28;20031;-61
2020/12/09 23:18:14;;;;;;;0.52;0.40;;;0.90;99.90;;;;;;20648396;28;20059;-60
2020/12/09 23:28:17;;;;;;;0.35;0.20;;;0.80;99.90;;;;;;20664754;28;20042;-61
2020/12/09 23:38:19;;;;;;;0.50;0.40;;;0.80;99.90;;;;;;20631493;28;20046;-62
2020/12/09 23:48:20;;;;;;;0.50;0.40;;;0.70;99.90;;;;;;20715288;28;20030;-61
2020/12/09 23:58:22;;;;;;;0.40;0.30;;;0.50;99.90;;;;;;20746968;28;20045;-62
